sensor_id;sensor_type;location;lat;lon;timestamp;P1;durP1;ratioP1;P2;durP2;ratioP2
21202;SDS011;10759;51.982;9.232;2022-12-07T00:01:26;28.83;;;25.85;;
21202;SDS011;10759;51.982;9.232;2022-12-07T00:03:59;31.10;;;28.00;;
21202;SDS011;10759;51.982;9.232;2022-12-07T00:06:31;30.92;;;27.70;;
21202;SDS011;10759;51.982;9.232;2022-12-07T00:09:00;33.55;;;29.90;;
21202;SDS011;10759;51.982;9.232;2022-12-07T00:11:28;32.85;;;29.70;;
21202;SDS011;10759;51.982;9.232;2022-12-07T00:13:57;29.92;;;26.98;;
21202;SDS011;10759;51.982;9.232;2022-12-07T00:16:27;29.42;;;26.70;;
21202;SDS011;10759;51.982;9.232;2022-12-07T00:18:59;29.77;;;26.65;;
21202;SDS011;10759;51.982;9.232;2022-12-07T00:21:29;30.52;;;27.52;;
21202;SDS011;10759;51.982;9.232;2022-12-07T00:23:59;30.70;;;27.73;;
21202;SDS011;10759;51.982;9.232;2022-12-07T00:26:28;28.80;;;25.90;;
21202;SDS011;10759;51.982;9.232;2022-12-07T00:29:00;31.38;;;28.38;;
21202;SDS011;10759;51.982;9.232;2022-12-07T00:31:30;32.05;;;28.42;;
21202;SDS011;10759;51.982;9.232;2022-12-07T00:34:03;28.23;;;25.45;;
21202;SDS011;10759;51.982;9.232;2022-12-07T00:36:30;27.17;;;24.53;;
21202;SDS011;10759;51.982;9.232;2022-12-07T00:39:00;26.52;;;24.13;;
21202;SDS011;10759;51.982;9.232;2022-12-07T00:41:29;26.35;;;23.98;;
21202;SDS011;10759;51.982;9.232;2022-12-07T00:43:57;26.63;;;24.20;;
21202;SDS011;10759;51.982;9.232;2022-12-07T00:46:26;25.05;;;22.85;;
21202;SDS011;10759;51.982;9.232;2022-12-07T00:48:54;25.67;;;23.35;;
21202;SDS011;10759;51.982;9.232;2022-12-07T00:51:24;27.17;;;24.67;;
21202;SDS011;10759;51.982;9.232;2022-12-07T00:53:53;25.98;;;23.77;;
21202;SDS011;10759;51.982;9.232;2022-12-07T00:56:22;27.75;;;25.10;;
21202;SDS011;10759;51.982;9.232;2022-12-07T00:58:52;28.42;;;25.80;;
21202;SDS011;10759;51.982;9.232;2022-12-07T01:01:22;29.50;;;26.90;;
21202;SDS011;10759;51.982;9.232;2022-12-07T01:03:51;29.70;;;26.85;;
21202;SDS011;10759;51.982;9.232;2022-12-07T01:06:20;28.00;;;25.48;;
21202;SDS011;10759;51.982;9.232;2022-12-07T01:08:51;29.90;;;27.27;;
21202;SDS011;10759;51.982;9.232;2022-12-07T01:11:20;30.88;;;28.05;;
21202;SDS011;10759;51.982;9.232;2022-12-07T01:13:50;32.28;;;29.23;;
21202;SDS011;10759;51.982;9.232;2022-12-07T01:16:19;30.17;;;27.33;;
21202;SDS011;10759;51.982;9.232;2022-12-07T01:18:49;31.58;;;28.58;;
21202;SDS011;10759;51.982;9.232;2022-12-07T01:23:48;35.40;;;31.70;;
21202;SDS011;10759;51.982;9.232;2022-12-07T01:26:19;33.65;;;30.25;;
21202;SDS011;10759;51.982;9.232;2022-12-07T01:28:50;34.70;;;31.33;;
21202;SDS011;10759;51.982;9.232;2022-12-07T01:31:21;37.15;;;33.42;;
21202;SDS011;10759;51.982;9.232;2022-12-07T01:33:51;37.05;;;33.28;;
21202;SDS011;10759;51.982;9.232;2022-12-07T01:36:21;37.63;;;33.83;;
21202;SDS011;10759;51.982;9.232;2022-12-07T01:41:20;37.10;;;33.40;;
21202;SDS011;10759;51.982;9.232;2022-12-07T01:44:09;37.13;;;33.70;;
21202;SDS011;10759;51.982;9.232;2022-12-07T01:46:43;38.20;;;34.30;;
21202;SDS011;10759;51.982;9.232;2022-12-07T01:49:14;38.25;;;34.47;;
21202;SDS011;10759;51.982;9.232;2022-12-07T01:51:49;39.35;;;35.35;;
21202;SDS011;10759;51.982;9.232;2022-12-07T01:54:19;39.65;;;35.67;;
21202;SDS011;10759;51.982;9.232;2022-12-07T01:56:51;38.00;;;34.30;;
21202;SDS011;10759;51.982;9.232;2022-12-07T01:59:23;41.35;;;37.05;;
21202;SDS011;10759;51.982;9.232;2022-12-07T02:01:53;38.55;;;34.67;;
21202;SDS011;10759;51.982;9.232;2022-12-07T02:04:22;42.28;;;37.33;;
21202;SDS011;10759;51.982;9.232;2022-12-07T02:06:51;41.97;;;37.40;;
21202;SDS011;10759;51.982;9.232;2022-12-07T02:09:21;41.35;;;37.15;;
21202;SDS011;10759;51.982;9.232;2022-12-07T02:11:50;42.42;;;37.97;;
21202;SDS011;10759;51.982;9.232;2022-12-07T02:14:19;39.97;;;36.00;;
21202;SDS011;10759;51.982;9.232;2022-12-07T02:16:51;39.67;;;35.72;;
21202;SDS011;10759;51.982;9.232;2022-12-07T02:19:38;41.15;;;36.95;;
21202;SDS011;10759;51.982;9.232;2022-12-07T02:22:37;39.60;;;35.70;;
21202;SDS011;10759;51.982;9.232;2022-12-07T02:25:30;38.20;;;34.25;;
21202;SDS011;10759;51.982;9.232;2022-12-07T02:28:16;41.10;;;36.92;;
21202;SDS011;10759;51.982;9.232;2022-12-07T02:30:52;38.88;;;34.80;;
21202;SDS011;10759;51.982;9.232;2022-12-07T02:33:24;38.78;;;35.13;;
21202;SDS011;10759;51.982;9.232;2022-12-07T02:35:57;37.58;;;33.78;;
21202;SDS011;10759;51.982;9.232;2022-12-07T02:38:31;36.08;;;32.35;;
21202;SDS011;10759;51.982;9.232;2022-12-07T02:41:06;36.20;;;32.72;;
21202;SDS011;10759;51.982;9.232;2022-12-07T02:43:40;35.42;;;32.03;;
21202;SDS011;10759;51.982;9.232;2022-12-07T02:46:16;34.58;;;30.98;;
21202;SDS011;10759;51.982;9.232;2022-12-07T02:48:48;32.58;;;29.48;;
21202;SDS011;10759;51.982;9.232;2022-12-07T02:51:17;32.50;;;29.15;;
21202;SDS011;10759;51.982;9.232;2022-12-07T02:53:46;30.27;;;27.27;;
21202;SDS011;10759;51.982;9.232;2022-12-07T02:56:16;32.70;;;29.27;;
21202;SDS011;10759;51.982;9.232;2022-12-07T02:58:54;31.02;;;28.23;;
21202;SDS011;10759;51.982;9.232;2022-12-07T03:01:37;31.35;;;27.52;;
21202;SDS011;10759;51.982;9.232;2022-12-07T03:04:19;30.10;;;26.90;;
21202;SDS011;10759;51.982;9.232;2022-12-07T03:07:00;27.20;;;24.50;;
21202;SDS011;10759;51.982;9.232;2022-12-07T03:09:32;28.48;;;25.52;;
21202;SDS011;10759;51.982;9.232;2022-12-07T03:12:07;23.55;;;21.23;;
21202;SDS011;10759;51.982;9.232;2022-12-07T03:14:41;23.95;;;21.63;;
21202;SDS011;10759;51.982;9.232;2022-12-07T03:17:17;22.17;;;20.00;;
21202;SDS011;10759;51.982;9.232;2022-12-07T03:19:49;22.90;;;20.48;;
21202;SDS011;10759;51.982;9.232;2022-12-07T03:22:25;23.98;;;21.50;;
21202;SDS011;10759;51.982;9.232;2022-12-07T03:24:58;22.35;;;20.00;;
21202;SDS011;10759;51.982;9.232;2022-12-07T03:27:31;24.42;;;21.88;;
21202;SDS011;10759;51.982;9.232;2022-12-07T03:30:04;24.40;;;21.20;;
21202;SDS011;10759;51.982;9.232;2022-12-07T03:32:38;23.80;;;21.27;;
21202;SDS011;10759;51.982;9.232;2022-12-07T03:35:12;25.25;;;22.73;;
21202;SDS011;10759;51.982;9.232;2022-12-07T03:37:45;25.70;;;23.10;;
21202;SDS011;10759;51.982;9.232;2022-12-07T03:40:16;27.95;;;23.48;;
21202;SDS011;10759;51.982;9.232;2022-12-07T03:42:50;26.35;;;23.67;;
21202;SDS011;10759;51.982;9.232;2022-12-07T03:45:22;23.23;;;20.75;;
21202;SDS011;10759;51.982;9.232;2022-12-07T03:47:57;26.00;;;23.58;;
21202;SDS011;10759;51.982;9.232;2022-12-07T03:50:35;22.13;;;19.93;;
21202;SDS011;10759;51.982;9.232;2022-12-07T03:53:12;22.65;;;20.35;;
21202;SDS011;10759;51.982;9.232;2022-12-07T03:55:45;22.98;;;20.40;;
21202;SDS011;10759;51.982;9.232;2022-12-07T03:58:16;21.88;;;19.55;;
21202;SDS011;10759;51.982;9.232;2022-12-07T04:00:47;23.52;;;21.23;;
21202;SDS011;10759;51.982;9.232;2022-12-07T04:03:18;23.00;;;20.52;;
21202;SDS011;10759;51.982;9.232;2022-12-07T04:05:47;23.08;;;20.48;;
21202;SDS011;10759;51.982;9.232;2022-12-07T04:08:16;21.43;;;19.13;;
21202;SDS011;10759;51.982;9.232;2022-12-07T04:10:44;21.00;;;19.00;;
21202;SDS011;10759;51.982;9.232;2022-12-07T04:13:12;20.60;;;18.50;;
21202;SDS011;10759;51.982;9.232;2022-12-07T04:15:40;22.15;;;19.20;;
21202;SDS011;10759;51.982;9.232;2022-12-07T04:18:09;19.75;;;17.73;;
21202;SDS011;10759;51.982;9.232;2022-12-07T04:20:38;22.08;;;16.98;;
21202;SDS011;10759;51.982;9.232;2022-12-07T04:25:35;18.55;;;16.65;;
21202;SDS011;10759;51.982;9.232;2022-12-07T04:28:03;18.85;;;16.90;;
21202;SDS011;10759;51.982;9.232;2022-12-07T04:30:32;20.15;;;18.13;;
21202;SDS011;10759;51.982;9.232;2022-12-07T04:33:00;18.50;;;16.52;;
21202;SDS011;10759;51.982;9.232;2022-12-07T04:35:28;18.73;;;16.83;;
21202;SDS011;10759;51.982;9.232;2022-12-07T04:37:57;17.80;;;15.98;;
21202;SDS011;10759;51.982;9.232;2022-12-07T04:40:25;22.67;;;17.15;;
21202;SDS011;10759;51.982;9.232;2022-12-07T04:42:54;16.83;;;15.13;;
21202;SDS011;10759;51.982;9.232;2022-12-07T04:45:21;18.80;;;15.07;;
21202;SDS011;10759;51.982;9.232;2022-12-07T04:47:49;19.85;;;15.63;;
21202;SDS011;10759;51.982;9.232;2022-12-07T04:50:17;15.18;;;13.88;;
21202;SDS011;10759;51.982;9.232;2022-12-07T04:52:45;16.27;;;14.82;;
21202;SDS011;10759;51.982;9.232;2022-12-07T04:55:15;14.77;;;13.48;;
21202;SDS011;10759;51.982;9.232;2022-12-07T04:57:43;16.45;;;14.40;;
21202;SDS011;10759;51.982;9.232;2022-12-07T05:00:11;15.27;;;13.90;;
21202;SDS011;10759;51.982;9.232;2022-12-07T05:02:39;15.48;;;13.90;;
21202;SDS011;10759;51.982;9.232;2022-12-07T05:05:08;20.10;;;13.75;;
21202;SDS011;10759;51.982;9.232;2022-12-07T05:07:36;14.98;;;13.38;;
21202;SDS011;10759;51.982;9.232;2022-12-07T05:10:04;13.70;;;12.27;;
21202;SDS011;10759;51.982;9.232;2022-12-07T05:12:34;14.15;;;12.30;;
21202;SDS011;10759;51.982;9.232;2022-12-07T05:15:03;13.23;;;11.98;;
21202;SDS011;10759;51.982;9.232;2022-12-07T05:17:32;13.45;;;12.25;;
21202;SDS011;10759;51.982;9.232;2022-12-07T05:20:00;15.68;;;12.65;;
21202;SDS011;10759;51.982;9.232;2022-12-07T05:22:29;13.43;;;12.13;;
21202;SDS011;10759;51.982;9.232;2022-12-07T05:24:57;14.85;;;12.40;;
21202;SDS011;10759;51.982;9.232;2022-12-07T05:27:25;13.73;;;12.30;;
21202;SDS011;10759;51.982;9.232;2022-12-07T05:29:54;13.43;;;11.68;;
21202;SDS011;10759;51.982;9.232;2022-12-07T05:32:23;13.63;;;11.70;;
21202;SDS011;10759;51.982;9.232;2022-12-07T05:34:51;12.13;;;10.90;;
21202;SDS011;10759;51.982;9.232;2022-12-07T05:37:21;13.05;;;11.18;;
21202;SDS011;10759;51.982;9.232;2022-12-07T05:39:49;11.90;;;10.68;;
21202;SDS011;10759;51.982;9.232;2022-12-07T05:42:17;12.85;;;10.43;;
21202;SDS011;10759;51.982;9.232;2022-12-07T05:44:45;11.38;;;10.32;;
21202;SDS011;10759;51.982;9.232;2022-12-07T05:47:15;11.90;;;10.10;;
21202;SDS011;10759;51.982;9.232;2022-12-07T05:49:43;11.88;;;10.32;;
21202;SDS011;10759;51.982;9.232;2022-12-07T05:52:12;11.30;;;9.88;;
21202;SDS011;10759;51.982;9.232;2022-12-07T05:54:40;13.98;;;10.57;;
21202;SDS011;10759;51.982;9.232;2022-12-07T05:57:08;11.85;;;10.10;;
21202;SDS011;10759;51.982;9.232;2022-12-07T05:59:36;12.52;;;10.77;;
21202;SDS011;10759;51.982;9.232;2022-12-07T06:02:04;11.48;;;10.32;;
21202;SDS011;10759;51.982;9.232;2022-12-07T06:04:36;15.70;;;9.80;;
21202;SDS011;10759;51.982;9.232;2022-12-07T06:07:06;11.23;;;9.07;;
21202;SDS011;10759;51.982;9.232;2022-12-07T06:09:35;13.10;;;10.02;;
21202;SDS011;10759;51.982;9.232;2022-12-07T06:12:04;12.20;;;10.38;;
21202;SDS011;10759;51.982;9.232;2022-12-07T06:14:50;12.82;;;10.20;;
21202;SDS011;10759;51.982;9.232;2022-12-07T06:17:18;14.10;;;10.63;;
21202;SDS011;10759;51.982;9.232;2022-12-07T06:19:48;10.60;;;9.45;;
21202;SDS011;10759;51.982;9.232;2022-12-07T06:22:16;9.75;;;6.97;;
21202;SDS011;10759;51.982;9.232;2022-12-07T06:24:44;15.20;;;10.10;;
21202;SDS011;10759;51.982;9.232;2022-12-07T06:27:13;12.00;;;9.95;;
21202;SDS011;10759;51.982;9.232;2022-12-07T06:29:41;13.85;;;10.20;;
21202;SDS011;10759;51.982;9.232;2022-12-07T06:32:09;10.93;;;9.68;;
21202;SDS011;10759;51.982;9.232;2022-12-07T06:34:38;11.07;;;9.98;;
21202;SDS011;10759;51.982;9.232;2022-12-07T06:37:08;10.85;;;9.43;;
21202;SDS011;10759;51.982;9.232;2022-12-07T06:39:36;11.93;;;10.30;;
21202;SDS011;10759;51.982;9.232;2022-12-07T06:42:05;10.30;;;9.40;;
21202;SDS011;10759;51.982;9.232;2022-12-07T06:44:33;16.38;;;10.02;;
21202;SDS011;10759;51.982;9.232;2022-12-07T06:47:01;11.05;;;9.45;;
21202;SDS011;10759;51.982;9.232;2022-12-07T06:49:50;16.13;;;9.33;;
21202;SDS011;10759;51.982;9.232;2022-12-07T06:52:20;12.55;;;10.05;;
21202;SDS011;10759;51.982;9.232;2022-12-07T06:54:48;10.00;;;8.97;;
21202;SDS011;10759;51.982;9.232;2022-12-07T06:57:16;11.73;;;10.00;;
21202;SDS011;10759;51.982;9.232;2022-12-07T06:59:44;16.52;;;8.98;;
21202;SDS011;10759;51.982;9.232;2022-12-07T07:02:12;12.00;;;10.23;;
21202;SDS011;10759;51.982;9.232;2022-12-07T07:04:40;10.35;;;9.18;;
21202;SDS011;10759;51.982;9.232;2022-12-07T07:07:08;11.50;;;9.65;;
21202;SDS011;10759;51.982;9.232;2022-12-07T07:09:37;11.00;;;9.70;;
21202;SDS011;10759;51.982;9.232;2022-12-07T07:12:05;13.00;;;11.20;;
21202;SDS011;10759;51.982;9.232;2022-12-07T07:14:33;10.60;;;9.70;;
21202;SDS011;10759;51.982;9.232;2022-12-07T07:17:02;12.88;;;9.85;;
21202;SDS011;10759;51.982;9.232;2022-12-07T07:19:30;11.98;;;10.07;;
21202;SDS011;10759;51.982;9.232;2022-12-07T07:21:58;11.90;;;9.88;;
21202;SDS011;10759;51.982;9.232;2022-12-07T07:24:26;12.10;;;10.93;;
21202;SDS011;10759;51.982;9.232;2022-12-07T07:26:55;12.18;;;10.93;;
21202;SDS011;10759;51.982;9.232;2022-12-07T07:29:23;11.53;;;10.53;;
21202;SDS011;10759;51.982;9.232;2022-12-07T07:31:51;13.10;;;11.32;;
21202;SDS011;10759;51.982;9.232;2022-12-07T07:34:20;12.32;;;11.18;;
21202;SDS011;10759;51.982;9.232;2022-12-07T07:36:48;12.10;;;10.68;;
21202;SDS011;10759;51.982;9.232;2022-12-07T07:39:16;13.35;;;10.75;;
21202;SDS011;10759;51.982;9.232;2022-12-07T07:41:44;15.60;;;11.25;;
21202;SDS011;10759;51.982;9.232;2022-12-07T07:44:24;11.75;;;9.90;;
21202;SDS011;10759;51.982;9.232;2022-12-07T07:47:00;11.80;;;10.65;;
21202;SDS011;10759;51.982;9.232;2022-12-07T07:49:28;13.52;;;11.07;;
21202;SDS011;10759;51.982;9.232;2022-12-07T07:51:56;11.98;;;10.45;;
21202;SDS011;10759;51.982;9.232;2022-12-07T07:54:24;12.63;;;10.05;;
21202;SDS011;10759;51.982;9.232;2022-12-07T07:56:52;12.40;;;9.43;;
21202;SDS011;10759;51.982;9.232;2022-12-07T07:59:20;11.75;;;9.70;;
21202;SDS011;10759;51.982;9.232;2022-12-07T08:01:50;10.43;;;9.52;;
21202;SDS011;10759;51.982;9.232;2022-12-07T08:04:18;12.27;;;9.90;;
21202;SDS011;10759;51.982;9.232;2022-12-07T08:06:47;10.93;;;9.27;;
21202;SDS011;10759;51.982;9.232;2022-12-07T08:09:15;14.60;;;9.65;;
21202;SDS011;10759;51.982;9.232;2022-12-07T08:11:43;10.52;;;9.43;;
21202;SDS011;10759;51.982;9.232;2022-12-07T08:14:11;13.30;;;8.90;;
21202;SDS011;10759;51.982;9.232;2022-12-07T08:16:39;9.57;;;8.57;;
21202;SDS011;10759;51.982;9.232;2022-12-07T08:19:09;10.15;;;9.07;;
21202;SDS011;10759;51.982;9.232;2022-12-07T08:21:37;10.32;;;9.20;;
21202;SDS011;10759;51.982;9.232;2022-12-07T08:24:05;13.57;;;9.68;;
21202;SDS011;10759;51.982;9.232;2022-12-07T08:26:33;13.98;;;9.32;;
21202;SDS011;10759;51.982;9.232;2022-12-07T08:29:01;11.25;;;9.23;;
21202;SDS011;10759;51.982;9.232;2022-12-07T08:31:29;10.60;;;9.18;;
21202;SDS011;10759;51.982;9.232;2022-12-07T08:33:57;9.60;;;8.65;;
21202;SDS011;10759;51.982;9.232;2022-12-07T08:36:27;11.52;;;9.95;;
21202;SDS011;10759;51.982;9.232;2022-12-07T08:38:55;12.95;;;8.85;;
21202;SDS011;10759;51.982;9.232;2022-12-07T08:41:43;15.13;;;9.07;;
21202;SDS011;10759;51.982;9.232;2022-12-07T08:44:11;12.82;;;7.50;;
21202;SDS011;10759;51.982;9.232;2022-12-07T08:46:40;10.20;;;8.70;;
21202;SDS011;10759;51.982;9.232;2022-12-07T08:49:13;10.68;;;7.93;;
21202;SDS011;10759;51.982;9.232;2022-12-07T08:51:45;11.23;;;8.05;;
21202;SDS011;10759;51.982;9.232;2022-12-07T08:56:44;9.40;;;7.47;;
21202;SDS011;10759;51.982;9.232;2022-12-07T08:59:17;8.23;;;7.43;;
21202;SDS011;10759;51.982;9.232;2022-12-07T09:01:46;9.43;;;8.43;;
21202;SDS011;10759;51.982;9.232;2022-12-07T09:04:14;10.55;;;8.05;;
21202;SDS011;10759;51.982;9.232;2022-12-07T09:06:43;8.73;;;7.93;;
21202;SDS011;10759;51.982;9.232;2022-12-07T09:09:12;10.35;;;7.80;;
21202;SDS011;10759;51.982;9.232;2022-12-07T09:11:42;10.07;;;7.75;;
21202;SDS011;10759;51.982;9.232;2022-12-07T09:14:11;11.05;;;8.27;;
21202;SDS011;10759;51.982;9.232;2022-12-07T09:16:40;11.32;;;8.70;;
21202;SDS011;10759;51.982;9.232;2022-12-07T09:19:08;9.13;;;8.23;;
21202;SDS011;10759;51.982;9.232;2022-12-07T09:21:36;8.90;;;7.03;;
21202;SDS011;10759;51.982;9.232;2022-12-07T09:24:04;11.35;;;8.05;;
21202;SDS011;10759;51.982;9.232;2022-12-07T09:26:35;10.35;;;7.60;;
21202;SDS011;10759;51.982;9.232;2022-12-07T09:29:02;11.27;;;8.43;;
21202;SDS011;10759;51.982;9.232;2022-12-07T09:31:31;10.25;;;7.72;;
21202;SDS011;10759;51.982;9.232;2022-12-07T09:33:59;7.90;;;6.75;;
21202;SDS011;10759;51.982;9.232;2022-12-07T09:36:28;11.05;;;7.13;;
21202;SDS011;10759;51.982;9.232;2022-12-07T09:38:56;9.80;;;5.97;;
21202;SDS011;10759;51.982;9.232;2022-12-07T09:41:25;8.35;;;6.15;;
21202;SDS011;10759;51.982;9.232;2022-12-07T09:43:58;8.35;;;5.65;;
21202;SDS011;10759;51.982;9.232;2022-12-07T09:46:31;6.38;;;5.78;;
21202;SDS011;10759;51.982;9.232;2022-12-07T09:49:04;11.77;;;5.75;;
21202;SDS011;10759;51.982;9.232;2022-12-07T09:51:35;11.32;;;6.13;;
21202;SDS011;10759;51.982;9.232;2022-12-07T09:54:03;11.05;;;6.00;;
21202;SDS011;10759;51.982;9.232;2022-12-07T09:56:31;8.07;;;5.10;;
21202;SDS011;10759;51.982;9.232;2022-12-07T09:59:01;7.43;;;4.97;;
21202;SDS011;10759;51.982;9.232;2022-12-07T10:01:31;8.73;;;5.20;;
21202;SDS011;10759;51.982;9.232;2022-12-07T10:06:34;9.68;;;4.80;;
21202;SDS011;10759;51.982;9.232;2022-12-07T10:09:08;8.90;;;5.53;;
21202;SDS011;10759;51.982;9.232;2022-12-07T10:14:28;11.13;;;5.18;;
21202;SDS011;10759;51.982;9.232;2022-12-07T10:17:29;7.97;;;4.43;;
21202;SDS011;10759;51.982;9.232;2022-12-07T10:20:13;8.13;;;4.82;;
21202;SDS011;10759;51.982;9.232;2022-12-07T10:22:57;13.35;;;5.28;;
21202;SDS011;10759;51.982;9.232;2022-12-07T10:25:28;6.57;;;4.85;;
21202;SDS011;10759;51.982;9.232;2022-12-07T10:28:00;8.25;;;4.57;;
21202;SDS011;10759;51.982;9.232;2022-12-07T10:30:32;8.68;;;4.68;;
21202;SDS011;10759;51.982;9.232;2022-12-07T10:33:01;6.43;;;4.15;;
21202;SDS011;10759;51.982;9.232;2022-12-07T10:35:29;8.93;;;4.85;;
21202;SDS011;10759;51.982;9.232;2022-12-07T10:37:59;7.20;;;3.90;;
21202;SDS011;10759;51.982;9.232;2022-12-07T10:40:29;5.82;;;4.03;;
21202;SDS011;10759;51.982;9.232;2022-12-07T10:43:01;8.75;;;4.65;;
21202;SDS011;10759;51.982;9.232;2022-12-07T10:45:34;8.30;;;4.22;;
21202;SDS011;10759;51.982;9.232;2022-12-07T10:48:30;6.10;;;3.53;;
21202;SDS011;10759;51.982;9.232;2022-12-07T10:51:09;9.68;;;3.83;;
21202;SDS011;10759;51.982;9.232;2022-12-07T10:53:55;7.18;;;4.10;;
21202;SDS011;10759;51.982;9.232;2022-12-07T10:56:35;9.52;;;3.53;;
21202;SDS011;10759;51.982;9.232;2022-12-07T11:02:23;7.18;;;4.45;;
21202;SDS011;10759;51.982;9.232;2022-12-07T11:05:02;10.20;;;3.97;;
21202;SDS011;10759;51.982;9.232;2022-12-07T11:07:45;9.85;;;4.63;;
21202;SDS011;10759;51.982;9.232;2022-12-07T11:10:23;7.97;;;3.33;;
21202;SDS011;10759;51.982;9.232;2022-12-07T11:13:01;6.15;;;3.40;;
21202;SDS011;10759;51.982;9.232;2022-12-07T11:15:43;9.30;;;4.30;;
21202;SDS011;10759;51.982;9.232;2022-12-07T11:18:26;5.22;;;3.47;;
21202;SDS011;10759;51.982;9.232;2022-12-07T11:21:00;6.90;;;3.53;;
21202;SDS011;10759;51.982;9.232;2022-12-07T11:23:40;9.10;;;3.50;;
21202;SDS011;10759;51.982;9.232;2022-12-07T11:26:18;9.43;;;4.63;;
21202;SDS011;10759;51.982;9.232;2022-12-07T11:29:03;8.90;;;4.88;;
21202;SDS011;10759;51.982;9.232;2022-12-07T11:31:45;9.30;;;4.57;;
21202;SDS011;10759;51.982;9.232;2022-12-07T11:34:28;9.20;;;4.10;;
21202;SDS011;10759;51.982;9.232;2022-12-07T11:37:05;7.30;;;3.63;;
21202;SDS011;10759;51.982;9.232;2022-12-07T11:39:40;9.35;;;3.65;;
21202;SDS011;10759;51.982;9.232;2022-12-07T11:42:15;8.73;;;4.30;;
21202;SDS011;10759;51.982;9.232;2022-12-07T11:44:50;11.30;;;3.67;;
21202;SDS011;10759;51.982;9.232;2022-12-07T11:47:22;11.80;;;4.43;;
21202;SDS011;10759;51.982;9.232;2022-12-07T11:50:01;4.55;;;3.42;;
21202;SDS011;10759;51.982;9.232;2022-12-07T11:52:41;8.43;;;2.88;;
21202;SDS011;10759;51.982;9.232;2022-12-07T11:55:17;6.20;;;3.42;;
21202;SDS011;10759;51.982;9.232;2022-12-07T11:57:52;7.80;;;3.10;;
21202;SDS011;10759;51.982;9.232;2022-12-07T12:00:28;4.85;;;2.97;;
21202;SDS011;10759;51.982;9.232;2022-12-07T12:02:57;8.43;;;3.10;;
21202;SDS011;10759;51.982;9.232;2022-12-07T12:05:31;5.50;;;3.00;;
21202;SDS011;10759;51.982;9.232;2022-12-07T12:08:03;7.45;;;3.33;;
21202;SDS011;10759;51.982;9.232;2022-12-07T12:11:03;7.65;;;2.80;;
21202;SDS011;10759;51.982;9.232;2022-12-07T12:13:46;6.35;;;3.45;;
21202;SDS011;10759;51.982;9.232;2022-12-07T12:17:01;7.32;;;3.10;;
21202;SDS011;10759;51.982;9.232;2022-12-07T12:19:56;6.93;;;2.90;;
21202;SDS011;10759;51.982;9.232;2022-12-07T12:25:02;6.80;;;2.80;;
21202;SDS011;10759;51.982;9.232;2022-12-07T12:27:33;6.07;;;3.15;;
21202;SDS011;10759;51.982;9.232;2022-12-07T12:30:06;6.18;;;2.95;;
21202;SDS011;10759;51.982;9.232;2022-12-07T12:32:51;6.60;;;3.42;;
21202;SDS011;10759;51.982;9.232;2022-12-07T12:35:20;6.63;;;2.83;;
21202;SDS011;10759;51.982;9.232;2022-12-07T12:40:49;6.28;;;3.45;;
21202;SDS011;10759;51.982;9.232;2022-12-07T12:46:37;10.02;;;4.35;;
21202;SDS011;10759;51.982;9.232;2022-12-07T12:55:22;7.55;;;3.28;;
21202;SDS011;10759;51.982;9.232;2022-12-07T12:58:28;7.70;;;3.38;;
21202;SDS011;10759;51.982;9.232;2022-12-07T13:04:16;5.03;;;3.63;;
21202;SDS011;10759;51.982;9.232;2022-12-07T13:09:23;8.13;;;2.95;;
21202;SDS011;10759;51.982;9.232;2022-12-07T13:12:01;13.10;;;3.45;;
21202;SDS011;10759;51.982;9.232;2022-12-07T13:14:38;7.40;;;3.35;;
21202;SDS011;10759;51.982;9.232;2022-12-07T13:17:11;10.40;;;3.72;;
21202;SDS011;10759;51.982;9.232;2022-12-07T13:20:00;7.75;;;2.80;;
21202;SDS011;10759;51.982;9.232;2022-12-07T13:22:37;8.07;;;3.05;;
21202;SDS011;10759;51.982;9.232;2022-12-07T13:25:19;6.63;;;3.17;;
21202;SDS011;10759;51.982;9.232;2022-12-07T13:27:56;6.35;;;2.88;;
21202;SDS011;10759;51.982;9.232;2022-12-07T13:30:29;6.28;;;2.70;;
21202;SDS011;10759;51.982;9.232;2022-12-07T13:32:59;6.28;;;2.97;;
21202;SDS011;10759;51.982;9.232;2022-12-07T13:35:31;5.88;;;2.50;;
21202;SDS011;10759;51.982;9.232;2022-12-07T13:38:02;6.63;;;2.35;;
21202;SDS011;10759;51.982;9.232;2022-12-07T13:40:33;6.32;;;2.40;;
21202;SDS011;10759;51.982;9.232;2022-12-07T13:43:02;4.60;;;2.55;;
21202;SDS011;10759;51.982;9.232;2022-12-07T13:45:42;9.00;;;3.20;;
21202;SDS011;10759;51.982;9.232;2022-12-07T13:48:19;11.73;;;3.13;;
21202;SDS011;10759;51.982;9.232;2022-12-07T13:50:52;10.88;;;3.72;;
21202;SDS011;10759;51.982;9.232;2022-12-07T13:53:21;10.75;;;3.75;;
21202;SDS011;10759;51.982;9.232;2022-12-07T13:55:49;9.07;;;2.80;;
21202;SDS011;10759;51.982;9.232;2022-12-07T13:58:20;6.25;;;2.88;;
21202;SDS011;10759;51.982;9.232;2022-12-07T14:00:50;7.97;;;3.30;;
21202;SDS011;10759;51.982;9.232;2022-12-07T14:03:25;7.43;;;3.35;;
21202;SDS011;10759;51.982;9.232;2022-12-07T14:06:06;7.40;;;3.38;;
21202;SDS011;10759;51.982;9.232;2022-12-07T14:08:42;9.05;;;3.15;;
21202;SDS011;10759;51.982;9.232;2022-12-07T14:11:12;6.15;;;2.88;;
21202;SDS011;10759;51.982;9.232;2022-12-07T14:13:47;6.13;;;2.83;;
21202;SDS011;10759;51.982;9.232;2022-12-07T14:16:26;7.22;;;3.03;;
21202;SDS011;10759;51.982;9.232;2022-12-07T14:18:56;10.15;;;4.35;;
21202;SDS011;10759;51.982;9.232;2022-12-07T14:21:26;15.75;;;7.63;;
21202;SDS011;10759;51.982;9.232;2022-12-07T14:24:06;8.80;;;5.10;;
21202;SDS011;10759;51.982;9.232;2022-12-07T14:26:38;6.57;;;3.85;;
21202;SDS011;10759;51.982;9.232;2022-12-07T14:29:20;10.73;;;3.87;;
21202;SDS011;10759;51.982;9.232;2022-12-07T14:32:13;7.63;;;3.90;;
21202;SDS011;10759;51.982;9.232;2022-12-07T14:34:55;7.07;;;3.40;;
21202;SDS011;10759;51.982;9.232;2022-12-07T14:37:24;7.28;;;3.75;;
21202;SDS011;10759;51.982;9.232;2022-12-07T14:39:52;8.90;;;3.30;;
21202;SDS011;10759;51.982;9.232;2022-12-07T14:42:20;9.10;;;4.15;;
21202;SDS011;10759;51.982;9.232;2022-12-07T14:44:51;4.88;;;2.35;;
21202;SDS011;10759;51.982;9.232;2022-12-07T14:47:21;5.72;;;3.03;;
21202;SDS011;10759;51.982;9.232;2022-12-07T14:50:11;5.78;;;3.08;;
21202;SDS011;10759;51.982;9.232;2022-12-07T14:52:40;6.85;;;2.20;;
21202;SDS011;10759;51.982;9.232;2022-12-07T14:55:31;7.55;;;2.75;;
21202;SDS011;10759;51.982;9.232;2022-12-07T14:57:59;6.28;;;2.85;;
21202;SDS011;10759;51.982;9.232;2022-12-07T15:00:27;8.95;;;3.50;;
21202;SDS011;10759;51.982;9.232;2022-12-07T15:02:57;6.82;;;3.78;;
21202;SDS011;10759;51.982;9.232;2022-12-07T15:05:25;12.00;;;5.00;;
21202;SDS011;10759;51.982;9.232;2022-12-07T15:07:53;8.00;;;3.05;;
21202;SDS011;10759;51.982;9.232;2022-12-07T15:10:23;11.23;;;5.60;;
21202;SDS011;10759;51.982;9.232;2022-12-07T15:12:55;8.25;;;3.15;;
21202;SDS011;10759;51.982;9.232;2022-12-07T15:15:44;9.27;;;4.85;;
21202;SDS011;10759;51.982;9.232;2022-12-07T15:18:14;7.80;;;4.07;;
21202;SDS011;10759;51.982;9.232;2022-12-07T15:20:43;5.65;;;3.80;;
21202;SDS011;10759;51.982;9.232;2022-12-07T15:23:11;9.48;;;3.55;;
21202;SDS011;10759;51.982;9.232;2022-12-07T15:25:40;8.20;;;3.47;;
21202;SDS011;10759;51.982;9.232;2022-12-07T15:28:08;9.88;;;3.63;;
21202;SDS011;10759;51.982;9.232;2022-12-07T15:30:37;10.23;;;3.63;;
21202;SDS011;10759;51.982;9.232;2022-12-07T15:33:05;11.68;;;3.83;;
21202;SDS011;10759;51.982;9.232;2022-12-07T15:35:37;10.20;;;4.75;;
21202;SDS011;10759;51.982;9.232;2022-12-07T15:38:06;10.55;;;5.53;;
21202;SDS011;10759;51.982;9.232;2022-12-07T15:40:34;8.43;;;4.68;;
21202;SDS011;10759;51.982;9.232;2022-12-07T15:43:03;10.85;;;5.53;;